createdAt,value
2022-10-28T00:00:54.239Z,8.60
2022-10-28T00:03:22.251Z,7.40
2022-10-28T00:05:50.242Z,8.13
2022-10-28T00:08:19.483Z,9.07
2022-10-28T00:10:47.440Z,15.60
2022-10-28T00:13:15.346Z,12.13
2022-10-28T00:15:43.250Z,10.80
2022-10-28T00:18:11.868Z,18.63
2022-10-28T00:20:39.766Z,11.40
2022-10-28T00:23:07.672Z,7.63
2022-10-28T00:25:36.945Z,7.07
2022-10-28T00:28:05.062Z,6.10
2022-10-28T00:30:32.987Z,6.13
2022-10-28T00:33:00.874Z,11.30
2022-10-28T00:35:28.740Z,23.30
2022-10-28T00:37:56.642Z,18.60
2022-10-28T00:40:24.551Z,9.47
2022-10-28T00:42:54.188Z,6.07
2022-10-28T00:45:22.445Z,7.00
2022-10-28T00:47:56.008Z,6.13
2022-10-28T00:50:36.877Z,6.30
2022-10-28T00:53:07.508Z,4.90
2022-10-28T00:55:36.853Z,4.60
2022-10-28T00:58:07.960Z,5.80
2022-10-28T01:00:36.226Z,5.50
2022-10-28T01:03:04.412Z,8.93
2022-10-28T01:05:36.403Z,10.10
2022-10-28T01:08:06.009Z,9.40
2022-10-28T01:10:52.536Z,11.67
2022-10-28T01:13:34.437Z,11.97
2022-10-28T01:16:08.368Z,11.90
2022-10-28T01:18:47.008Z,8.80
2022-10-28T01:21:52.246Z,8.37
2022-10-28T01:24:34.472Z,7.13
2022-10-28T01:27:48.613Z,8.20
2022-10-28T01:30:19.537Z,10.90
2022-10-28T01:33:00.274Z,14.00
2022-10-28T01:35:34.333Z,8.17
2022-10-28T01:38:18.811Z,6.83
2022-10-28T01:40:53.178Z,7.07
2022-10-28T01:43:27.478Z,7.77
2022-10-28T01:46:01.454Z,7.97
2022-10-28T01:51:09.673Z,11.70
2022-10-28T01:53:41.671Z,10.43
2022-10-28T01:56:13.200Z,8.50
2022-10-28T01:58:42.438Z,8.60
2022-10-28T02:01:11.975Z,8.23
2022-10-28T02:03:41.375Z,7.70
2022-10-28T02:06:18.180Z,7.63
2022-10-28T02:08:58.556Z,7.60
2022-10-28T02:11:39.651Z,7.10
2022-10-28T02:14:25.749Z,6.37
2022-10-28T02:17:01.293Z,5.17
2022-10-28T02:19:39.918Z,5.70
2022-10-28T02:22:16.718Z,5.67
2022-10-28T02:24:51.720Z,4.93
2022-10-28T02:27:28.284Z,5.87
2022-10-28T02:30:02.997Z,5.43
2022-10-28T02:32:38.443Z,7.00
2022-10-28T02:35:12.863Z,6.30
2022-10-28T02:37:42.922Z,6.00
2022-10-28T02:40:16.224Z,6.70
2022-10-28T02:42:49.767Z,6.30
2022-10-28T02:45:22.025Z,6.20
2022-10-28T02:47:58.588Z,6.90
2022-10-28T02:50:33.076Z,6.30
2022-10-28T02:53:03.355Z,6.47
2022-10-28T02:55:36.097Z,6.10
2022-10-28T02:58:04.214Z,6.03
2022-10-28T03:00:32.164Z,5.60
2022-10-28T03:03:00.208Z,7.57
2022-10-28T03:05:29.446Z,6.83
2022-10-28T03:07:57.368Z,7.07
2022-10-28T03:10:25.263Z,7.33
2022-10-28T03:12:53.226Z,7.67
2022-10-28T03:15:21.213Z,8.20
2022-10-28T03:17:49.209Z,7.03
2022-10-28T03:20:17.339Z,7.77
2022-10-28T03:22:46.575Z,7.70
2022-10-28T03:25:14.666Z,7.10
2022-10-28T03:27:42.536Z,6.73
2022-10-28T03:30:11.411Z,5.80
2022-10-28T03:32:42.561Z,6.63
2022-10-28T03:35:10.818Z,6.83
2022-10-28T03:37:38.812Z,6.30
2022-10-28T03:40:09.656Z,7.20
2022-10-28T03:42:40.420Z,6.53
2022-10-28T03:45:09.977Z,5.70
2022-10-28T03:47:38.104Z,6.20
2022-10-28T03:50:06.544Z,6.20
2022-10-28T03:52:34.493Z,6.23
2022-10-28T03:55:02.508Z,5.33
2022-10-28T03:57:33.441Z,4.60
2022-10-28T04:00:01.417Z,4.90
2022-10-28T04:02:39.658Z,5.30
2022-10-28T04:05:08.484Z,7.20
2022-10-28T04:07:36.511Z,7.47
2022-10-28T04:10:04.767Z,5.40
2022-10-28T04:12:34.068Z,5.37
2022-10-28T04:15:02.145Z,5.90
2022-10-28T04:17:30.097Z,5.30
2022-10-28T04:19:58.003Z,4.90
2022-10-28T04:22:25.985Z,5.30
2022-10-28T04:24:54.535Z,4.50
2022-10-28T04:27:22.587Z,6.27
2022-10-28T04:29:51.857Z,5.10
2022-10-28T04:32:19.748Z,5.20
2022-10-28T04:34:47.810Z,5.37
2022-10-28T04:37:19.671Z,5.37
2022-10-28T04:39:48.716Z,5.67
2022-10-28T04:42:16.718Z,6.00
2022-10-28T04:44:44.697Z,4.67
2022-10-28T04:47:13.940Z,5.43
2022-10-28T04:49:41.967Z,5.63
2022-10-28T04:52:13.328Z,4.70
2022-10-28T04:54:43.747Z,4.93
2022-10-28T04:57:11.838Z,6.47
2022-10-28T04:59:39.766Z,5.90
2022-10-28T05:02:07.869Z,6.60
2022-10-28T05:04:37.371Z,7.30
2022-10-28T05:07:05.277Z,8.13
2022-10-28T05:09:33.243Z,9.50
2022-10-28T05:12:01.188Z,7.70
2022-10-28T05:14:29.079Z,7.10
2022-10-28T05:16:56.995Z,7.80
2022-10-28T05:19:24.907Z,6.90
2022-10-28T05:21:54.293Z,5.90
2022-10-28T05:24:22.199Z,6.30
2022-10-28T05:26:50.105Z,5.63
2022-10-28T05:29:19.517Z,5.30
2022-10-28T05:31:47.702Z,5.00
2022-10-28T05:34:15.620Z,4.90
2022-10-28T05:36:43.586Z,6.40
2022-10-28T05:39:13.799Z,6.07
2022-10-28T05:41:41.841Z,5.77
2022-10-28T05:44:09.758Z,5.83
2022-10-28T05:46:37.630Z,5.97
2022-10-28T05:49:05.683Z,6.23
2022-10-28T05:51:33.588Z,5.70
2022-10-28T05:54:01.505Z,8.03
2022-10-28T05:56:30.905Z,8.53
2022-10-28T05:58:59.053Z,9.90
2022-10-28T06:01:26.980Z,13.13
2022-10-28T06:03:55.082Z,8.03
2022-10-28T06:06:23.046Z,7.90
2022-10-28T06:08:50.985Z,7.80
2022-10-28T06:11:17.762Z,7.47
2022-10-28T06:13:46.981Z,7.70
2022-10-28T06:16:14.947Z,8.10
2022-10-28T06:18:42.880Z,9.67
2022-10-28T06:21:10.762Z,10.33
2022-10-28T06:23:38.708Z,9.80
2022-10-28T06:26:06.636Z,10.50
2022-10-28T06:28:34.755Z,9.30
2022-10-28T06:31:05.065Z,9.00
2022-10-28T06:33:33.116Z,7.80
2022-10-28T06:36:01.601Z,7.80
2022-10-28T06:38:30.036Z,7.60
2022-10-28T06:40:58.760Z,6.80
2022-10-28T06:43:27.018Z,6.03
2022-10-28T06:45:55.732Z,6.10
2022-10-28T06:48:26.525Z,6.57
2022-10-28T06:50:56.290Z,5.43
2022-10-28T06:53:24.236Z,6.20
2022-10-28T06:55:56.209Z,5.40
2022-10-28T06:58:24.992Z,6.90
2022-10-28T07:00:53.727Z,6.77
2022-10-28T07:03:21.662Z,6.83
2022-10-28T07:05:51.719Z,7.70
2022-10-28T07:08:19.684Z,7.90
2022-10-28T07:10:55.189Z,16.07
2022-10-28T07:13:23.394Z,8.90
2022-10-28T07:15:55.843Z,7.53
2022-10-28T07:18:25.554Z,9.80
2022-10-28T07:20:54.892Z,16.50
2022-10-28T07:23:22.821Z,24.80
2022-10-28T07:25:54.866Z,21.50
2022-10-28T07:28:23.054Z,20.00
2022-10-28T07:30:51.010Z,16.37
2022-10-28T07:33:19.238Z,16.67
2022-10-28T07:35:47.282Z,8.40
2022-10-28T07:38:17.154Z,9.90
2022-10-28T07:40:45.194Z,10.33
2022-10-28T07:43:13.107Z,11.90
2022-10-28T07:45:41.004Z,11.03
2022-10-28T07:48:08.912Z,10.60
2022-10-28T07:50:36.824Z,10.20
2022-10-28T07:53:04.925Z,9.40
2022-10-28T07:55:34.230Z,9.40
2022-10-28T07:58:02.128Z,9.30
2022-10-28T08:00:30.134Z,8.50
2022-10-28T08:02:58.137Z,8.43
2022-10-28T08:05:26.019Z,8.97
2022-10-28T08:07:54.094Z,9.53
2022-10-28T08:10:22.171Z,9.80
2022-10-28T08:12:51.617Z,9.40
2022-10-28T08:15:23.463Z,8.73
2022-10-28T08:17:53.465Z,9.33
2022-10-28T08:20:22.073Z,9.20
2022-10-28T08:22:50.423Z,10.50
2022-10-28T08:25:18.364Z,9.77
2022-10-28T08:27:46.314Z,7.87
2022-10-28T08:30:15.727Z,9.20
2022-10-28T08:32:43.599Z,10.73
2022-10-28T08:35:11.487Z,9.90
2022-10-28T08:37:39.387Z,10.43
2022-10-28T08:40:11.028Z,9.80
2022-10-28T08:42:45.418Z,10.47
2022-10-28T08:45:31.735Z,10.37
2022-10-28T08:48:13.793Z,10.40
2022-10-28T08:50:53.232Z,10.50
2022-10-28T08:53:25.683Z,9.77
2022-10-28T08:55:56.767Z,10.37
2022-10-28T08:58:28.890Z,10.60
2022-10-28T09:01:00.040Z,9.77
2022-10-28T09:03:34.307Z,10.07
2022-10-28T09:06:06.657Z,11.47
2022-10-28T09:08:37.690Z,11.50
2022-10-28T09:11:17.439Z,11.17
2022-10-28T09:13:55.716Z,11.20
2022-10-28T09:16:36.071Z,10.20
2022-10-28T09:19:10.034Z,11.60
2022-10-28T09:21:46.522Z,11.47
2022-10-28T09:24:19.888Z,11.27
2022-10-28T09:26:56.413Z,12.47
2022-10-28T09:29:41.795Z,11.73
2022-10-28T09:32:23.485Z,11.33
2022-10-28T09:34:57.572Z,11.50
2022-10-28T09:37:30.308Z,11.30
2022-10-28T09:40:03.695Z,11.37
2022-10-28T09:42:41.604Z,11.20
2022-10-28T09:45:18.884Z,10.33
2022-10-28T09:47:59.370Z,11.10
2022-10-28T09:50:31.000Z,11.70
2022-10-28T09:53:05.368Z,10.90
2022-10-28T09:55:33.736Z,9.90
2022-10-28T09:58:03.505Z,10.30
2022-10-28T10:00:32.212Z,10.87
2022-10-28T10:03:01.639Z,11.20
2022-10-28T10:05:32.073Z,10.70
2022-10-28T10:08:04.286Z,10.50
2022-10-28T10:10:37.138Z,10.30
2022-10-28T10:13:07.918Z,9.23
2022-10-28T10:15:40.605Z,9.53
2022-10-28T10:18:17.498Z,10.03
2022-10-28T10:20:51.912Z,10.03
2022-10-28T10:23:25.021Z,9.23
2022-10-28T10:25:58.800Z,9.67
2022-10-28T10:28:28.120Z,9.20
2022-10-28T10:30:58.673Z,9.80
2022-10-28T10:33:32.232Z,10.67
2022-10-28T10:36:03.418Z,9.57
2022-10-28T10:38:32.453Z,10.40
2022-10-28T10:41:00.372Z,10.80
2022-10-28T10:43:32.850Z,9.33
2022-10-28T10:46:03.034Z,9.27
2022-10-28T10:48:36.211Z,9.20
2022-10-28T10:51:09.411Z,9.70
2022-10-28T10:53:39.021Z,9.70
2022-10-28T10:56:10.646Z,9.57
2022-10-28T10:58:41.357Z,9.80
2022-10-28T11:01:17.719Z,10.87
2022-10-28T11:03:51.425Z,10.03
2022-10-28T11:06:24.995Z,10.47
2022-10-28T11:08:59.495Z,9.10
2022-10-28T11:11:34.364Z,10.50
2022-10-28T11:14:08.504Z,9.20
2022-10-28T11:16:49.223Z,9.67
2022-10-28T11:19:22.815Z,8.20
2022-10-28T11:22:04.145Z,9.00
2022-10-28T11:24:55.448Z,9.23
2022-10-28T11:27:38.087Z,8.70
2022-10-28T11:30:11.778Z,9.47
2022-10-28T11:33:08.482Z,8.23
2022-10-28T11:35:57.879Z,8.73
2022-10-28T11:38:41.960Z,8.60
2022-10-28T11:41:21.998Z,9.33
2022-10-28T11:43:55.103Z,9.30
2022-10-28T11:46:38.099Z,9.07
2022-10-28T11:49:31.897Z,8.53
2022-10-28T11:52:08.490Z,8.70
2022-10-28T11:54:46.374Z,9.20
2022-10-28T11:57:17.119Z,9.03
2022-10-28T12:00:09.991Z,8.87
2022-10-28T12:02:59.612Z,9.93
2022-10-28T12:05:34.228Z,7.63
2022-10-28T12:08:16.905Z,7.50
2022-10-28T12:11:01.184Z,8.37
2022-10-28T12:13:38.728Z,8.30
2022-10-28T12:16:13.828Z,7.37
2022-10-28T12:18:51.698Z,8.10
2022-10-28T12:21:28.632Z,6.93
2022-10-28T12:24:00.014Z,6.10
2022-10-28T12:26:36.404Z,6.30
2022-10-28T12:29:10.248Z,8.10
2022-10-28T12:31:44.645Z,6.53
2022-10-28T12:34:17.026Z,6.30
2022-10-28T12:36:50.136Z,6.23
2022-10-28T12:39:25.775Z,8.20
2022-10-28T12:41:59.750Z,6.67
2022-10-28T12:44:29.438Z,6.33
2022-10-28T12:47:06.130Z,5.57
2022-10-28T12:49:45.872Z,5.63
2022-10-28T12:52:25.216Z,4.90
2022-10-28T12:55:01.129Z,5.23
2022-10-28T12:57:34.120Z,4.83
2022-10-28T13:00:05.473Z,3.87
2022-10-28T13:02:38.904Z,3.53
2022-10-28T13:05:07.708Z,3.40
2022-10-28T13:07:57.812Z,3.70
2022-10-28T13:10:35.612Z,6.20
2022-10-28T13:13:21.613Z,3.80
2022-10-28T13:16:05.914Z,3.37
2022-10-28T13:19:16.091Z,3.30
2022-10-28T13:22:14.727Z,4.60
2022-10-28T13:24:54.652Z,3.80
2022-10-28T13:27:24.393Z,3.20
2022-10-28T13:29:56.023Z,3.53
2022-10-28T13:32:35.770Z,3.90
2022-10-28T13:35:14.250Z,4.20
2022-10-28T13:37:46.326Z,3.43
2022-10-28T13:40:24.269Z,4.20
2022-10-28T13:42:53.761Z,3.53
2022-10-28T13:45:48.861Z,4.27
2022-10-28T13:48:55.353Z,2.87
2022-10-28T13:51:33.773Z,3.40
2022-10-28T13:54:02.148Z,3.57
2022-10-28T13:56:47.185Z,3.80
2022-10-28T13:59:25.263Z,3.40
2022-10-28T14:02:07.400Z,4.17
2022-10-28T14:04:54.602Z,5.00
2022-10-28T14:07:26.638Z,4.00
2022-10-28T14:09:58.416Z,3.87
2022-10-28T14:12:32.405Z,4.17
2022-10-28T14:15:17.915Z,4.10
2022-10-28T14:17:50.258Z,4.40
2022-10-28T14:20:28.239Z,4.03
2022-10-28T14:22:56.732Z,4.93
2022-10-28T14:26:04.370Z,4.90
2022-10-28T14:28:55.594Z,5.57
2022-10-28T14:31:45.090Z,4.87
2022-10-28T14:34:41.084Z,3.70
2022-10-28T14:37:42.718Z,3.37
2022-10-28T14:40:24.051Z,3.80
2022-10-28T14:43:09.837Z,5.43
2022-10-28T14:45:48.943Z,13.20
2022-10-28T14:48:46.737Z,19.00
2022-10-28T14:51:17.522Z,9.77
2022-10-28T14:53:46.651Z,5.57
2022-10-28T14:56:24.800Z,5.40
2022-10-28T14:58:55.496Z,5.47
2022-10-28T15:01:27.260Z,5.97
2022-10-28T15:04:01.878Z,6.60
2022-10-28T15:06:34.076Z,4.53
2022-10-28T15:09:09.454Z,4.30
2022-10-28T15:11:37.562Z,5.30
2022-10-28T15:14:24.155Z,4.30
2022-10-28T15:16:52.854Z,5.00
2022-10-28T15:19:24.223Z,5.20
2022-10-28T15:22:07.024Z,3.63
2022-10-28T15:24:35.188Z,3.50
2022-10-28T15:27:03.225Z,4.40
2022-10-28T15:29:31.280Z,3.40
2022-10-28T15:32:06.899Z,3.90
2022-10-28T15:34:36.368Z,3.60
2022-10-28T15:37:05.358Z,3.83
2022-10-28T15:39:33.582Z,4.60
2022-10-28T15:42:02.604Z,4.50
2022-10-28T15:44:36.684Z,3.97
2022-10-28T15:47:19.510Z,4.17
2022-10-28T15:50:17.061Z,4.57
2022-10-28T15:52:48.258Z,4.47
2022-10-28T15:55:35.848Z,4.73
2022-10-28T15:58:34.043Z,4.27
2022-10-28T16:01:02.084Z,9.90
2022-10-28T16:03:43.034Z,10.10
2022-10-28T16:06:24.594Z,6.50
2022-10-28T16:09:17.954Z,7.53
2022-10-28T16:11:48.957Z,8.33
2022-10-28T16:14:34.952Z,9.07
2022-10-28T16:17:08.292Z,10.67
2022-10-28T16:19:39.317Z,9.83
2022-10-28T16:22:12.841Z,8.67
2022-10-28T16:24:40.825Z,9.30
2022-10-28T16:27:18.671Z,10.57
2022-10-28T16:29:46.750Z,11.40
2022-10-28T16:32:16.242Z,10.70
2022-10-28T16:34:44.890Z,9.60
2022-10-28T16:37:25.833Z,8.27
2022-10-28T16:39:54.216Z,8.40
2022-10-28T16:42:23.403Z,8.70
2022-10-28T16:44:52.626Z,10.20
2022-10-28T16:47:22.360Z,16.50
2022-10-28T16:49:54.219Z,10.10
2022-10-28T16:52:28.536Z,11.13
2022-10-28T16:54:56.938Z,14.17
2022-10-28T16:57:25.675Z,13.80
2022-10-28T16:59:53.949Z,13.37
2022-10-28T17:02:26.778Z,12.57
2022-10-28T17:04:55.027Z,11.20
2022-10-28T17:07:23.027Z,11.23
2022-10-28T17:09:52.909Z,10.27
2022-10-28T17:12:22.789Z,10.40
2022-10-28T17:14:50.737Z,9.80
2022-10-28T17:17:19.293Z,9.10
2022-10-28T17:19:47.221Z,8.80
2022-10-28T17:22:15.154Z,9.43
2022-10-28T17:24:43.132Z,9.67
2022-10-28T17:27:12.806Z,7.63
2022-10-28T17:29:40.839Z,8.03
2022-10-28T17:32:09.370Z,7.50
2022-10-28T17:34:37.483Z,9.53
2022-10-28T17:37:05.929Z,11.83
2022-10-28T17:39:33.893Z,12.73
2022-10-28T17:42:01.770Z,15.10
2022-10-28T17:44:31.071Z,27.30
2022-10-28T17:46:58.974Z,33.20
2022-10-28T17:49:26.997Z,17.73
2022-10-28T17:51:55.014Z,19.70
2022-10-28T17:56:51.849Z,36.67
2022-10-28T17:59:19.795Z,36.77
2022-10-28T18:01:49.190Z,24.60
2022-10-28T18:04:17.180Z,20.60
2022-10-28T18:06:45.123Z,32.47
2022-10-28T18:09:13.777Z,22.27
2022-10-28T18:11:41.694Z,23.33
2022-10-28T18:14:09.601Z,22.33
2022-10-28T18:16:38.286Z,20.40
2022-10-28T18:19:08.498Z,23.50
2022-10-28T18:21:36.642Z,20.00
2022-10-28T18:24:04.943Z,18.43
2022-10-28T18:26:34.440Z,15.90
2022-10-28T18:29:03.842Z,15.33
2022-10-28T18:31:32.952Z,13.90
2022-10-28T18:34:01.553Z,10.93
2022-10-28T18:36:34.496Z,12.70
2022-10-28T18:39:04.573Z,11.10
2022-10-28T18:41:34.443Z,13.57
2022-10-28T18:44:04.340Z,14.40
2022-10-28T18:46:33.866Z,12.53
2022-10-28T18:49:02.432Z,11.90
2022-10-28T18:51:32.443Z,12.30
2022-10-28T18:54:00.632Z,11.20
2022-10-28T18:56:30.126Z,11.43
2022-10-28T18:58:59.151Z,12.63
2022-10-28T19:01:29.068Z,12.03
2022-10-28T19:03:59.017Z,11.67
2022-10-28T19:06:29.816Z,11.87
2022-10-28T19:09:00.922Z,12.87
2022-10-28T19:11:31.242Z,12.07
2022-10-28T19:14:00.416Z,12.07
2022-10-28T19:16:29.607Z,9.47
2022-10-28T19:18:58.369Z,10.43
2022-10-28T19:21:27.165Z,10.40
2022-10-28T19:23:55.700Z,10.80
2022-10-28T19:26:25.076Z,11.07
2022-10-28T19:28:53.243Z,8.40
2022-10-28T19:31:23.186Z,8.70
2022-10-28T19:33:52.522Z,8.20
2022-10-28T19:36:22.328Z,10.30
2022-10-28T19:38:53.515Z,10.03
2022-10-28T19:41:24.877Z,8.13
2022-10-28T19:43:57.870Z,8.40
2022-10-28T19:46:27.795Z,7.90
2022-10-28T19:48:57.160Z,8.70
2022-10-28T19:51:27.287Z,8.67
2022-10-28T19:53:56.746Z,10.13
2022-10-28T19:56:26.931Z,9.53
2022-10-28T19:58:57.066Z,12.10
2022-10-28T20:01:27.109Z,11.00
2022-10-28T20:03:56.154Z,10.93
2022-10-28T20:06:26.613Z,12.67
2022-10-28T20:08:54.857Z,11.70
2022-10-28T20:11:27.451Z,12.47
2022-10-28T20:13:56.461Z,11.80
2022-10-28T20:16:26.223Z,10.63
2022-10-28T20:18:55.252Z,13.57
2022-10-28T20:21:24.994Z,11.70
2022-10-28T20:23:54.707Z,10.57
2022-10-28T20:26:24.523Z,14.13
2022-10-28T20:28:53.984Z,15.20
2022-10-28T20:31:23.582Z,16.30
2022-10-28T20:33:53.363Z,16.77
2022-10-28T20:36:26.183Z,14.50
2022-10-28T20:38:55.351Z,10.67
2022-10-28T20:41:23.956Z,10.10
2022-10-28T20:43:54.013Z,13.33
2022-10-28T20:46:22.993Z,14.43
2022-10-28T20:48:51.156Z,16.30
2022-10-28T20:51:19.259Z,16.80
2022-10-28T20:53:47.339Z,17.40
2022-10-28T20:56:17.987Z,14.90
2022-10-28T20:58:45.899Z,15.23
2022-10-28T21:01:17.084Z,16.27
2022-10-28T21:03:45.696Z,12.70
2022-10-28T21:06:15.224Z,14.80
2022-10-28T21:08:44.167Z,11.47
2022-10-28T21:11:13.503Z,12.00
2022-10-28T21:13:41.519Z,10.53
2022-10-28T21:16:11.492Z,9.83
2022-10-28T21:18:41.257Z,11.47
2022-10-28T21:21:09.216Z,10.93
2022-10-28T21:23:37.129Z,10.67
2022-10-28T21:26:07.870Z,11.30
2022-10-28T21:28:36.800Z,12.00
2022-10-28T21:31:06.518Z,13.80
2022-10-28T21:33:35.719Z,13.13
2022-10-28T21:36:07.513Z,14.47
2022-10-28T21:38:36.230Z,13.23
2022-10-28T21:41:06.251Z,14.70
2022-10-28T21:43:36.317Z,14.67
2022-10-28T21:46:04.658Z,15.87
2022-10-28T21:48:33.930Z,17.47
2022-10-28T21:51:04.831Z,13.70
2022-10-28T21:53:37.105Z,11.30
2022-10-28T21:56:06.389Z,9.40
2022-10-28T21:58:36.725Z,10.20
2022-10-28T22:01:06.402Z,9.60
2022-10-28T22:03:34.692Z,9.93
2022-10-28T22:06:02.612Z,10.00
2022-10-28T22:08:30.686Z,9.40
2022-10-28T22:11:05.699Z,10.73
2022-10-28T22:13:34.238Z,10.67
2022-10-28T22:16:03.827Z,8.50
2022-10-28T22:18:33.770Z,8.13
2022-10-28T22:21:05.459Z,8.80
2022-10-28T22:23:33.644Z,8.70
2022-10-28T22:26:03.980Z,8.93
2022-10-28T22:28:32.476Z,8.90
2022-10-28T22:31:00.521Z,7.87
2022-10-28T22:33:28.584Z,10.40
2022-10-28T22:36:00.044Z,10.80
2022-10-28T22:38:28.299Z,10.37
2022-10-28T22:41:08.270Z,11.20
2022-10-28T22:43:36.203Z,10.07
2022-10-28T22:46:04.967Z,10.03
2022-10-28T22:48:33.615Z,7.57
2022-10-28T22:51:02.034Z,8.60
2022-10-28T22:53:30.337Z,7.77
2022-10-28T22:55:58.894Z,8.67
2022-10-28T22:58:28.765Z,9.00
2022-10-28T23:01:06.012Z,9.97
2022-10-28T23:03:36.977Z,9.33
2022-10-28T23:06:05.322Z,8.40
2022-10-28T23:08:33.233Z,8.73
2022-10-28T23:11:01.409Z,7.43
2022-10-28T23:13:30.812Z,6.60
2022-10-28T23:16:03.044Z,7.10
2022-10-28T23:18:30.921Z,7.63
2022-10-28T23:21:03.979Z,7.33
2022-10-28T23:23:31.938Z,8.53
2022-10-28T23:25:59.893Z,9.03
2022-10-28T23:28:27.928Z,9.60
2022-10-28T23:31:00.487Z,10.40
2022-10-28T23:33:29.870Z,9.30
2022-10-28T23:35:58.349Z,8.10
2022-10-28T23:38:26.946Z,8.83
2022-10-28T23:40:56.299Z,8.80
2022-10-28T23:43:24.275Z,9.83
2022-10-28T23:45:52.356Z,12.60
2022-10-28T23:48:22.536Z,10.83
2022-10-28T23:50:50.583Z,13.03
2022-10-28T23:53:18.956Z,15.23
2022-10-28T23:55:48.791Z,13.83
2022-10-28T23:58:18.447Z,12.80
